Time;durP1;ratioP1;P1;durP2;ratioP2;P2;SDS_P1;SDS_P2;PMS_P1;PMS_P2;Temp;Humidity;BMP_temperature;BMP_pressure;BME280_temperature;BME280_humidity;BME280_pressure;Samples;Min_cycle;Max_cycle;Signal;HPM_P1;HPM_P2
2021/03/04 00:00:33;;;;;;;61.50;28.63;;;4.10;99.90;;;;;;5136028;28;20200;-61
2021/03/04 00:02:59;;;;;;;53.88;26.60;;;4.10;99.90;;;;;;5136035;28;20520;-62
2021/03/04 00:05:25;;;;;;;21.80;14.02;;;4.10;99.90;;;;;;5136633;28;20190;-61
2021/03/04 00:07:50;;;;;;;55.75;25.50;;;4.00;99.90;;;;;;5137166;27;20205;-61
2021/03/04 00:10:19;;;;;;;54.93;26.63;;;3.90;99.90;;;;;;5137312;28;20175;-62
2021/03/04 00:12:46;;;;;;;51.15;25.13;;;4.00;99.90;;;;;;5137029;28;20515;-64
2021/03/04 00:15:14;;;;;;;51.42;26.50;;;4.00;99.90;;;;;;5135675;28;20201;-64
2021/03/04 00:17:41;;;;;;;46.70;22.42;;;4.00;99.90;;;;;;5136704;28;20171;-64
2021/03/04 00:20:13;;;;;;;56.63;25.75;;;4.10;99.90;;;;;;5136740;27;20195;-63
2021/03/04 00:22:39;;;;;;;52.10;25.40;;;3.90;99.90;;;;;;5136567;28;20174;-63
2021/03/04 00:25:06;;;;;;;48.63;25.47;;;4.00;99.90;;;;;;5136470;28;20199;-63
2021/03/04 00:27:32;;;;;;;50.05;24.05;;;4.00;99.90;;;;;;5136687;27;20175;-64
2021/03/04 00:29:57;;;;;;;41.37;22.07;;;4.00;99.90;;;;;;5136498;27;20307;-65
2021/03/04 00:32:24;;;;;;;53.30;24.97;;;4.00;99.90;;;;;;5136317;27;20183;-66
2021/03/04 00:34:49;;;;;;;40.78;21.02;;;4.10;99.90;;;;;;5135816;28;20171;-65
2021/03/04 00:37:15;;;;;;;46.00;23.77;;;4.00;99.90;;;;;;5136081;28;20185;-65
2021/03/04 00:39:40;;;;;;;47.87;25.30;;;4.10;99.90;;;;;;5136266;28;20183;-65
2021/03/04 00:42:07;;;;;;;42.63;23.60;;;3.90;99.90;;;;;;5136303;28;20204;-62
2021/03/04 00:44:33;;;;;;;45.45;22.23;;;3.80;99.90;;;;;;5136918;28;20209;-62
2021/03/04 00:46:58;;;;;;;53.53;25.87;;;3.70;99.90;;;;;;5139749;27;20170;-62
2021/03/04 00:49:24;;;;;;;43.80;23.10;;;3.90;99.90;;;;;;5140745;27;20185;-61
2021/03/04 00:51:49;;;;;;;53.17;24.90;;;4.00;99.90;;;;;;5140429;27;20174;-61
2021/03/04 00:54:15;;;;;;;38.23;22.07;;;3.90;99.90;;;;;;5139711;27;20179;-61
2021/03/04 00:56:40;;;;;;;36.87;23.00;;;3.80;99.90;;;;;;5139745;27;20181;-66
2021/03/04 00:59:06;;;;;;;45.53;24.70;;;3.70;99.90;;;;;;5139499;27;20662;-66
2021/03/04 01:01:32;;;;;;;40.40;21.83;;;3.80;99.90;;;;;;5139526;27;20510;-64
2021/03/04 01:03:57;;;;;;;57.87;27.73;;;3.70;99.90;;;;;;5139820;27;20203;-63
2021/03/04 01:06:23;;;;;;;50.53;25.00;;;3.80;99.90;;;;;;5140982;27;20190;-64
2021/03/04 01:08:48;;;;;;;52.00;24.33;;;3.80;99.90;;;;;;5140097;27;20189;-64
2021/03/04 01:11:15;;;;;;;56.10;27.90;;;3.80;99.90;;;;;;5139663;27;20190;-64
2021/03/04 01:13:42;;;;;;;48.05;26.00;;;4.10;99.90;;;;;;5138732;27;20659;-64
2021/03/04 01:16:08;;;;;;;49.35;27.65;;;4.20;99.90;;;;;;5139583;27;20216;-63
2021/03/04 01:18:34;;;;;;;48.33;24.13;;;4.10;99.90;;;;;;5139772;27;20178;-63
2021/03/04 01:20:59;;;;;;;51.97;26.45;;;3.90;99.90;;;;;;5140187;27;20182;-64
2021/03/04 01:23:25;;;;;;;56.27;26.87;;;3.80;99.90;;;;;;5139960;27;20511;-64
2021/03/04 01:25:51;;;;;;;55.07;26.00;;;3.60;99.90;;;;;;5140458;27;20170;-64
2021/03/04 01:28:17;;;;;;;35.40;20.33;;;3.30;99.90;;;;;;5140770;27;20170;-64
2021/03/04 01:30:42;;;;;;;55.13;27.97;;;3.20;99.90;;;;;;5140600;27;20483;-62
2021/03/04 01:33:08;;;;;;;33.73;19.57;;;3.20;99.90;;;;;;5140340;27;20261;-64
2021/03/04 01:35:34;;;;;;;49.10;27.60;;;3.20;99.90;;;;;;5140478;27;20175;-64
2021/03/04 01:37:59;;;;;;;47.63;24.23;;;3.20;99.90;;;;;;5141194;27;20189;-67
2021/03/04 01:40:25;;;;;;;38.03;20.40;;;3.10;99.90;;;;;;5140562;27;20210;-64
2021/03/04 01:42:51;;;;;;;46.33;24.70;;;2.90;99.90;;;;;;5140574;27;20178;-64
2021/03/04 01:45:17;;;;;;;54.73;25.93;;;2.90;99.90;;;;;;5140713;27;20171;-64
2021/03/04 01:47:47;;;;;;;49.20;25.38;;;2.80;99.90;;;;;;5139755;27;20412;-66
2021/03/04 01:50:14;;;;;;;28.15;16.17;;;2.90;99.90;;;;;;5140281;27;20207;-64
2021/03/04 01:52:40;;;;;;;49.88;25.48;;;2.70;99.90;;;;;;5140232;27;20171;-64
2021/03/04 01:55:06;;;;;;;39.63;20.50;;;2.70;99.90;;;;;;5140035;27;20311;-64
2021/03/04 01:57:33;;;;;;;45.65;23.77;;;2.70;99.90;;;;;;5139387;27;20292;-64
2021/03/04 01:59:59;;;;;;;35.22;19.88;;;2.80;99.90;;;;;;5139615;27;20175;-63
2021/03/04 02:02:25;;;;;;;50.22;23.55;;;2.90;99.90;;;;;;5140121;27;20187;-62
2021/03/04 02:04:52;;;;;;;41.47;22.25;;;2.80;99.90;;;;;;5139744;27;20214;-64
2021/03/04 02:07:56;;;;;;;36.83;16.42;;;2.80;99.90;;;;;;5138742;27;20262;-62
2021/03/04 02:10:47;;;;;;;37.95;19.33;;;2.70;99.90;;;;;;5139708;27;20478;-64
2021/03/04 02:13:12;;;;;;;37.00;19.50;;;2.80;99.90;;;;;;5139630;27;20185;-67
2021/03/04 02:15:47;;;;;;;27.73;16.33;;;2.80;99.90;;;;;;5139275;27;20178;-67
2021/03/04 02:18:16;;;;;;;39.55;20.95;;;2.90;99.90;;;;;;5139875;27;20174;-61
2021/03/04 02:21:06;;;;;;;42.72;20.20;;;2.90;99.90;;;;;;5139901;27;20175;-63
2021/03/04 02:23:51;;;;;;;37.88;18.67;;;2.90;99.90;;;;;;5138874;27;20293;-63
2021/03/04 02:26:40;;;;;;;32.40;19.00;;;3.00;99.90;;;;;;5138854;27;20196;-64
2021/03/04 02:29:07;;;;;;;28.67;17.00;;;2.70;99.90;;;;;;5138280;27;20185;-61
2021/03/04 02:31:36;;;;;;;38.20;18.50;;;2.80;99.90;;;;;;5138633;27;20253;-65
2021/03/04 02:34:04;;;;;;;33.45;17.83;;;3.00;99.90;;;;;;5138048;27;20447;-65
2021/03/04 02:36:34;;;;;;;31.70;15.80;;;3.10;99.90;;;;;;5137102;27;20201;-66
2021/03/04 02:39:05;;;;;;;22.05;11.40;;;3.00;99.90;;;;;;5138361;27;20178;-62
2021/03/04 02:41:33;;;;;;;31.23;14.95;;;2.90;99.90;;;;;;5138636;27;20170;-65
2021/03/04 02:44:03;;;;;;;39.05;18.83;;;3.00;99.90;;;;;;5137493;27;20190;-65
2021/03/04 02:46:31;;;;;;;34.42;17.98;;;2.90;99.90;;;;;;5136910;27;20509;-65
2021/03/04 02:48:57;;;;;;;29.45;15.68;;;3.00;99.90;;;;;;5137815;27;20176;-65
2021/03/04 02:51:24;;;;;;;36.78;19.08;;;3.20;99.90;;;;;;5137912;27;20258;-63
2021/03/04 02:53:50;;;;;;;30.55;16.30;;;3.20;99.90;;;;;;5138076;27;20183;-62
2021/03/04 02:56:16;;;;;;;32.03;17.35;;;3.30;99.90;;;;;;5136840;27;20545;-63
2021/03/04 02:58:44;;;;;;;31.10;16.10;;;3.20;99.90;;;;;;5136734;27;20177;-61
2021/03/04 03:01:10;;;;;;;32.15;17.27;;;3.30;99.90;;;;;;5137704;27;20428;-64
2021/03/04 03:03:36;;;;;;;21.13;10.20;;;3.40;99.90;;;;;;5138067;27;20261;-62
2021/03/04 03:06:03;;;;;;;15.10;9.02;;;3.00;99.90;;;;;;5138987;27;20469;-61
2021/03/04 03:08:29;;;;;;;15.75;9.52;;;2.70;99.90;;;;;;5139271;27;20576;-63
2021/03/04 03:10:57;;;;;;;18.88;10.50;;;2.60;99.90;;;;;;5138114;27;20175;-69
2021/03/04 03:13:22;;;;;;;14.82;8.82;;;2.70;99.90;;;;;;5138196;27;20496;-65
2021/03/04 03:15:51;;;;;;;12.87;6.73;;;2.80;99.90;;;;;;5138272;27;20178;-61
2021/03/04 03:18:16;;;;;;;14.90;9.23;;;2.60;99.90;;;;;;5138776;27;20179;-63
2021/03/04 03:20:42;;;;;;;10.73;5.77;;;2.70;99.90;;;;;;5138806;27;20171;-63
2021/03/04 03:23:08;;;;;;;11.90;7.23;;;2.70;99.90;;;;;;5138213;27;20556;-63
2021/03/04 03:25:33;;;;;;;12.17;7.80;;;2.70;99.90;;;;;;5138853;27;20238;-63
2021/03/04 03:27:59;;;;;;;11.20;6.63;;;2.80;99.90;;;;;;5138858;27;20683;-67
2021/03/04 03:30:29;;;;;;;15.70;8.70;;;2.70;99.90;;;;;;5138421;27;20186;-65
2021/03/04 03:33:02;;;;;;;11.77;6.70;;;2.70;99.90;;;;;;5138239;27;20171;-63
2021/03/04 03:35:28;;;;;;;14.73;7.13;;;2.60;99.90;;;;;;5138246;27;20603;-60
2021/03/04 03:37:55;;;;;;;15.10;9.30;;;2.80;99.90;;;;;;5120264;27;20182;-61
2021/03/04 03:40:23;;;;;;;14.35;7.78;;;2.80;99.90;;;;;;5138238;27;20192;-63
2021/03/04 03:42:50;;;;;;;13.15;8.13;;;2.90;99.90;;;;;;5136578;27;20183;-63
2021/03/04 03:45:19;;;;;;;14.63;8.05;;;3.10;99.90;;;;;;5137645;27;20563;-62
2021/03/04 03:47:46;;;;;;;12.10;6.88;;;3.20;99.90;;;;;;5137727;27;20181;-63
2021/03/04 03:50:15;;;;;;;14.95;8.45;;;3.10;99.90;;;;;;5138563;27;20171;-63
2021/03/04 03:52:42;;;;;;;15.07;8.27;;;3.00;99.90;;;;;;5137229;28;20170;-62
2021/03/04 03:55:08;;;;;;;13.05;7.55;;;3.00;99.90;;;;;;5137421;27;20182;-68
2021/03/04 03:57:35;;;;;;;14.40;6.80;;;3.20;99.90;;;;;;5135829;28;20178;-61
2021/03/04 04:00:03;;;;;;;18.55;8.88;;;3.60;99.90;;;;;;5136614;27;20312;-65
2021/03/04 04:02:30;;;;;;;15.10;8.52;;;3.60;99.90;;;;;;5136357;27;20271;-65
2021/03/04 04:04:56;;;;;;;13.43;8.40;;;3.60;99.90;;;;;;5136394;27;20239;-65
2021/03/04 04:07:22;;;;;;;19.43;9.40;;;3.40;99.90;;;;;;5136455;27;20210;-62
2021/03/04 04:09:48;;;;;;;15.90;8.10;;;3.50;99.90;;;;;;5136821;28;20472;-63
2021/03/04 04:12:14;;;;;;;16.88;8.52;;;3.40;99.90;;;;;;5136878;28;20170;-62
2021/03/04 04:14:40;;;;;;;13.97;7.77;;;3.40;99.90;;;;;;5136855;28;20178;-63
2021/03/04 04:17:06;;;;;;;13.80;8.30;;;3.40;99.90;;;;;;5137663;27;20183;-62
2021/03/04 04:19:33;;;;;;;14.20;7.28;;;3.30;99.90;;;;;;5137255;27;20502;-63
2021/03/04 04:21:59;;;;;;;16.13;8.55;;;3.30;99.90;;;;;;5140429;27;20266;-64
2021/03/04 04:24:25;;;;;;;11.47;6.17;;;3.20;99.90;;;;;;5144459;27;20269;-64
2021/03/04 04:26:54;;;;;;;16.58;8.15;;;3.00;99.90;;;;;;5143793;27;20262;-64
2021/03/04 04:29:20;;;;;;;11.07;6.70;;;3.00;99.90;;;;;;5142121;27;20185;-67
2021/03/04 04:31:45;;;;;;;9.83;5.80;;;2.90;99.90;;;;;;5141847;27;20179;-65
2021/03/04 04:34:11;;;;;;;15.33;7.70;;;2.90;99.90;;;;;;5141045;27;20179;-64
2021/03/04 04:36:37;;;;;;;11.30;6.63;;;3.00;99.90;;;;;;5140861;27;20202;-62
2021/03/04 04:39:03;;;;;;;9.10;5.47;;;3.00;99.90;;;;;;5140073;27;20193;-64
2021/03/04 04:41:29;;;;;;;12.13;6.45;;;3.00;99.90;;;;;;5141066;27;20654;-62
2021/03/04 04:43:54;;;;;;;14.63;8.33;;;3.20;99.90;;;;;;5139319;27;20222;-64
2021/03/04 04:46:20;;;;;;;14.70;8.77;;;3.40;99.90;;;;;;5140901;27;20811;-63
2021/03/04 04:48:46;;;;;;;14.60;7.50;;;3.50;99.90;;;;;;5140186;27;20488;-62
2021/03/04 04:51:12;;;;;;;12.27;7.93;;;3.70;99.90;;;;;;5139692;27;20189;-66
2021/03/04 04:53:39;;;;;;;13.88;7.40;;;3.70;99.90;;;;;;5138036;27;20273;-66
2021/03/04 04:56:10;;;;;;;12.77;6.68;;;3.90;99.90;;;;;;5140281;27;20661;-65
2021/03/04 04:58:39;;;;;;;9.57;5.68;;;3.70;99.90;;;;;;5139818;27;20607;-65
2021/03/04 05:01:05;;;;;;;11.48;7.18;;;3.80;99.90;;;;;;5139127;27;20202;-69
2021/03/04 05:03:30;;;;;;;12.90;7.20;;;3.70;99.90;;;;;;5139832;27;20204;-64
2021/03/04 05:06:03;;;;;;;14.47;7.40;;;3.80;99.90;;;;;;5140299;27;20197;-63
2021/03/04 05:08:28;;;;;;;10.68;6.28;;;3.90;99.90;;;;;;5139634;27;20249;-63
2021/03/04 05:10:54;;;;;;;11.30;6.17;;;3.90;99.90;;;;;;5139511;27;20624;-62
2021/03/04 05:13:19;;;;;;;11.87;7.00;;;4.00;69.10;;;;;;5139098;27;20240;-62
2021/03/04 05:15:45;;;;;;;11.93;6.20;;;3.90;17.50;;;;;;5139515;27;20553;-62
2021/03/04 05:18:10;;;;;;;9.27;5.33;;;3.70;13.70;;;;;;5139769;27;20204;-64
2021/03/04 05:20:36;;;;;;;8.30;5.87;;;3.70;14.70;;;;;;5140035;27;20190;-63
2021/03/04 05:23:02;;;;;;;13.17;6.40;;;3.70;13.40;;;;;;5139626;27;20185;-63
2021/03/04 05:25:27;;;;;;;9.20;5.70;;;3.80;22.80;;;;;;5139562;27;20225;-66
2021/03/04 05:27:53;;;;;;;8.63;6.07;;;3.90;19.30;;;;;;5139310;27;20231;-63
2021/03/04 05:30:18;;;;;;;7.87;5.07;;;4.00;1.00;;;;;;5139169;27;20566;-62
2021/03/04 05:32:44;;;;;;;9.73;5.03;;;3.90;1.00;;;;;;5137833;27;20171;-63
2021/03/04 05:35:11;;;;;;;6.47;4.63;;;3.80;1.00;;;;;;5138396;27;20182;-62
2021/03/04 05:37:36;;;;;;;7.68;4.50;;;3.80;1.00;;;;;;5139394;27;20261;-63
2021/03/04 05:40:03;;;;;;;10.57;5.43;;;3.80;1.00;;;;;;5139109;27;20203;-63
2021/03/04 05:42:31;;;;;;;9.77;4.80;;;4.00;1.00;;;;;;5139334;27;20611;-65
2021/03/04 05:44:58;;;;;;;7.22;4.60;;;4.00;1.00;;;;;;5137626;27;20321;-60
2021/03/04 05:47:24;;;;;;;7.35;5.40;;;3.90;1.00;;;;;;5138166;27;20251;-61
2021/03/04 05:50:00;;;;;;;9.23;4.63;;;3.90;1.00;;;;;;5138184;27;20180;-62
2021/03/04 05:52:26;;;;;;;5.15;3.90;;;3.70;1.00;;;;;;5140855;27;20171;-63
2021/03/04 05:54:55;;;;;;;7.97;5.03;;;3.80;1.00;;;;;;5139450;27;20255;-63
2021/03/04 05:57:21;;;;;;;9.45;4.95;;;3.80;1.00;;;;;;5139317;27;20299;-62
2021/03/04 05:59:51;;;;;;;8.57;4.28;;;3.70;1.00;;;;;;5138835;27;20178;-62
2021/03/04 06:02:19;;;;;;;7.05;4.93;;;3.90;1.00;;;;;;5138570;27;20208;-66
2021/03/04 06:04:45;;;;;;;5.75;3.80;;;4.00;1.00;;;;;;5136960;27;20532;-65
2021/03/04 06:07:11;;;;;;;10.40;4.30;;;4.00;1.00;;;;;;5138901;27;20253;-63
2021/03/04 06:09:36;;;;;;;9.00;4.33;;;3.80;1.00;;;;;;5138657;27;20599;-63
2021/03/04 06:12:05;;;;;;;4.50;2.93;;;3.80;1.00;;;;;;5138482;27;20204;-63
2021/03/04 06:14:33;;;;;;;9.95;4.43;;;3.70;1.00;;;;;;5138599;27;20272;-63
2021/03/04 06:17:11;;;;;;;4.60;3.65;;;4.00;1.00;;;;;;5138821;27;20201;-62
2021/03/04 06:19:37;;;;;;;5.18;3.85;;;4.00;1.00;;;;;;5138288;27;20258;-65
2021/03/04 06:22:03;;;;;;;5.80;5.00;;;4.00;1.00;;;;;;5138486;27;20198;-65
2021/03/04 06:24:28;;;;;;;7.33;4.43;;;3.90;1.00;;;;;;5138168;27;20589;-63
2021/03/04 06:26:55;;;;;;;6.83;4.60;;;3.90;1.00;;;;;;5138424;27;20209;-62
2021/03/04 06:29:24;;;;;;;6.47;4.20;;;3.90;1.00;;;;;;5137810;27;20232;-63
2021/03/04 06:32:04;;;;;;;4.75;4.15;;;3.90;1.00;;;;;;5139171;27;20174;-61
2021/03/04 06:34:30;;;;;;;5.25;4.35;;;4.00;1.00;;;;;;5137710;27;20182;-63
2021/03/04 06:37:02;;;;;;;6.80;5.53;;;4.20;1.00;;;;;;5138409;27;20187;-63
2021/03/04 06:39:48;;;;;;;7.50;4.60;;;4.20;1.00;;;;;;5128831;27;20190;-63
2021/03/04 06:42:14;;;;;;;8.60;4.28;;;4.00;1.00;;;;;;5136707;27;20262;-63
2021/03/04 06:44:48;;;;;;;7.90;5.90;;;4.00;1.00;;;;;;5136153;27;20194;-63
2021/03/04 06:47:24;;;;;;;4.30;3.83;;;4.00;1.00;;;;;;5138151;27;20167;-68
2021/03/04 06:49:51;;;;;;;6.38;4.85;;;4.00;1.00;;;;;;5131034;27;20619;-67
2021/03/04 06:52:27;;;;;;;6.88;4.55;;;4.00;1.00;;;;;;5136835;27;20178;-66
2021/03/04 06:54:54;;;;;;;6.22;4.20;;;4.10;1.00;;;;;;5136899;27;20269;-67
2021/03/04 06:57:21;;;;;;;6.05;4.65;;;4.10;1.00;;;;;;5137193;27;20699;-64
2021/03/04 06:59:47;;;;;;;7.10;4.20;;;4.10;1.00;;;;;;5137746;27;20175;-63
2021/03/04 07:02:24;;;;;;;6.13;4.60;;;4.20;1.00;;;;;;5137484;27;20239;-63
2021/03/04 07:04:54;;;;;;;5.95;4.20;;;4.20;1.00;;;;;;5137006;27;20272;-63
2021/03/04 07:07:24;;;;;;;4.20;3.72;;;4.20;1.00;;;;;;5137358;27;20179;-63
2021/03/04 07:09:51;;;;;;;8.60;3.95;;;4.20;1.00;;;;;;5137182;27;20228;-66
2021/03/04 07:12:21;;;;;;;5.72;3.80;;;4.40;1.00;;;;;;5136328;27;20573;-63
2021/03/04 07:14:48;;;;;;;5.00;3.97;;;4.30;1.00;;;;;;5137548;27;20615;-64
2021/03/04 07:17:16;;;;;;;5.30;4.07;;;4.40;1.00;;;;;;5136853;27;20183;-62
2021/03/04 07:19:49;;;;;;;4.63;3.10;;;4.70;1.00;;;;;;5136017;27;20179;-62
2021/03/04 07:22:14;;;;;;;4.15;3.20;;;4.50;99.90;;;;;;5136878;27;20278;-64
2021/03/04 07:24:41;;;;;;;2.80;2.60;;;4.10;1.00;;;;;;5136657;27;20234;-66
2021/03/04 07:27:10;;;;;;;3.55;2.83;;;4.20;1.00;;;;;;5137214;27;20176;-66
2021/03/04 07:29:35;;;;;;;5.20;3.40;;;4.10;1.00;;;;;;5136859;27;20219;-64
2021/03/04 07:32:05;;;;;;;5.50;3.40;;;4.30;1.00;;;;;;5136620;27;20206;-62
2021/03/04 07:34:34;;;;;;;4.20;3.40;;;4.60;1.00;;;;;;5136545;27;20428;-63
2021/03/04 07:37:01;;;;;;;4.95;3.88;;;4.50;99.90;;;;;;5136648;27;20182;-62
2021/03/04 07:39:31;;;;;;;4.55;3.88;;;4.50;99.90;;;;;;5136308;27;20200;-62
2021/03/04 07:41:57;;;;;;;3.58;3.20;;;4.60;99.90;;;;;;5136936;27;20179;-62
2021/03/04 07:44:25;;;;;;;6.97;3.42;;;4.70;99.90;;;;;;5136292;27;20206;-63
2021/03/04 07:47:02;;;;;;;4.75;3.92;;;4.70;99.90;;;;;;5135640;27;20217;-62
2021/03/04 07:49:29;;;;;;;6.30;4.00;;;4.70;99.90;;;;;;5136379;27;20268;-62
2021/03/04 07:52:22;;;;;;;8.73;6.90;;;4.80;99.90;;;;;;5136440;28;20147;-63
2021/03/04 07:54:51;;;;;;;3.47;2.88;;;5.10;99.90;;;;;;5118137;27;20265;-63
2021/03/04 07:57:28;;;;;;;11.27;5.00;;;5.00;1.00;;;;;;5125404;27;20190;-66
2021/03/04 08:00:02;;;;;;;43.17;19.90;;;5.20;1.00;;;;;;5139872;27;20514;-65
2021/03/04 08:02:37;;;;;;;6.05;4.25;;;5.30;1.00;;;;;;5125642;27;20191;-65
2021/03/04 08:05:19;;;;;;;5.53;3.03;;;5.50;1.00;;;;;;5119596;28;20206;-64
2021/03/04 08:07:49;;;;;;;6.20;4.07;;;5.30;99.90;;;;;;5120015;28;20183;-64
2021/03/04 08:10:20;;;;;;;6.13;2.88;;;5.20;99.90;;;;;;5126063;27;20244;-69
2021/03/04 08:12:58;;;;;;;6.70;4.57;;;5.40;99.90;;;;;;5139321;27;20208;-68
2021/03/04 08:15:35;;;;;;;9.98;5.70;;;5.50;99.90;;;;;;5139765;27;20193;-67
2021/03/04 08:18:04;;;;;;;8.02;3.10;;;5.50;1.00;;;;;;5129203;27;20189;-65
2021/03/04 08:20:30;;;;;;;3.65;3.00;;;5.40;1.00;;;;;;5128448;27;20169;-67
2021/03/04 08:22:58;;;;;;;4.00;3.13;;;5.20;1.00;;;;;;5126729;27;20258;-69
2021/03/04 08:25:28;;;;;;;6.15;3.80;;;5.30;99.90;;;;;;5133505;27;20214;-67
2021/03/04 08:27:55;;;;;;;3.22;3.00;;;5.30;99.90;;;;;;5119472;27;20262;-67
2021/03/04 08:30:34;;;;;;;8.10;3.42;;;5.30;99.90;;;;;;5118952;28;20198;-66
2021/03/04 08:33:04;;;;;;;4.97;3.42;;;5.30;99.90;;;;;;5117722;27;20193;-67
2021/03/04 08:35:33;;;;;;;4.65;3.50;;;5.40;99.90;;;;;;5122992;27;20175;-64
2021/03/04 08:38:10;;;;;;;4.07;2.90;;;5.30;99.90;;;;;;5138527;27;20262;-64
2021/03/04 08:40:40;;;;;;;5.53;3.08;;;5.40;99.90;;;;;;5138792;27;20167;-65
2021/03/04 08:43:13;;;;;;;7.40;3.42;;;5.30;99.90;;;;;;5138479;27;20170;-66
2021/03/04 08:45:39;;;;;;;9.43;3.08;;;5.50;99.90;;;;;;5139461;27;20179;-66
2021/03/04 08:48:09;;;;;;;5.72;3.22;;;5.50;1.00;;;;;;5137875;27;20227;-65
2021/03/04 08:50:37;;;;;;;4.63;2.67;;;5.80;1.00;;;;;;5137844;27;20182;-64
2021/03/04 08:53:17;;;;;;;3.58;2.95;;;6.00;1.00;;;;;;5129328;27;20305;-65
2021/03/04 08:55:54;;;;;;;4.43;2.55;;;6.10;99.90;;;;;;5116967;28;20172;-65
2021/03/04 08:58:21;;;;;;;4.85;2.42;;;6.10;1.00;;;;;;5120419;28;20176;-67
2021/03/04 09:00:51;;;;;;;8.15;3.28;;;6.10;1.00;;;;;;5119039;27;20601;-63
2021/03/04 09:03:18;;;;;;;4.53;2.90;;;6.20;1.00;;;;;;5137235;27;20213;-64
2021/03/04 09:05:44;;;;;;;5.97;3.15;;;6.10;99.90;;;;;;5137215;27;20684;-65
2021/03/04 09:08:11;;;;;;;3.50;2.97;;;6.20;99.90;;;;;;5137962;27;20209;-64
2021/03/04 09:10:42;;;;;;;8.95;2.90;;;6.20;99.90;;;;;;5139339;27;20634;-68
2021/03/04 09:13:09;;;;;;;8.70;3.28;;;6.20;99.90;;;;;;5140298;27;20182;-66
2021/03/04 09:15:35;;;;;;;5.88;2.78;;;6.20;1.00;;;;;;5138730;27;20173;-64
2021/03/04 09:18:09;;;;;;;5.63;2.88;;;6.20;1.00;;;;;;5138160;27;20564;-64
2021/03/04 09:20:35;;;;;;;3.15;2.70;;;6.20;1.00;;;;;;5137534;27;20175;-66
2021/03/04 09:23:02;;;;;;;4.10;2.35;;;6.20;1.00;;;;;;5138400;27;20171;-61
2021/03/04 09:25:28;;;;;;;3.63;2.92;;;6.20;99.90;;;;;;5128400;27;20184;-62
2021/03/04 09:27:54;;;;;;;7.17;2.73;;;6.30;1.00;;;;;;5130323;27;20182;-63
2021/03/04 09:30:28;;;;;;;3.35;3.05;;;6.50;1.00;;;;;;5137385;27;20172;-62
2021/03/04 09:32:56;;;;;;;4.10;2.78;;;6.30;1.00;;;;;;5136522;27;20264;-64
2021/03/04 09:35:23;;;;;;;5.47;2.95;;;6.30;1.00;;;;;;5133703;27;20563;-64
2021/03/04 09:37:50;;;;;;;5.05;2.90;;;6.30;1.00;;;;;;5137174;27;20184;-64
2021/03/04 09:40:28;;;;;;;3.50;2.78;;;6.60;1.00;;;;;;5137194;27;20287;-64
2021/03/04 09:42:54;;;;;;;4.35;2.60;;;6.40;1.00;;;;;;5138132;27;20236;-65
2021/03/04 09:45:20;;;;;;;7.53;2.90;;;6.30;99.90;;;;;;5136081;27;20207;-66
2021/03/04 09:47:48;;;;;;;4.90;2.35;;;6.40;1.00;;;;;;5137868;27;20449;-63
2021/03/04 09:50:25;;;;;;;5.18;3.47;;;6.40;99.90;;;;;;5137849;27;20471;-62
2021/03/04 09:53:06;;;;;;;5.20;3.15;;;6.60;99.90;;;;;;5137900;27;20667;-63
2021/03/04 09:55:39;;;;;;;3.83;3.38;;;6.40;1.00;;;;;;5137482;27;20262;-63
2021/03/04 09:58:24;;;;;;;8.27;2.60;;;6.60;99.90;;;;;;5137607;27;20172;-63
2021/03/04 10:01:00;;;;;;;6.78;4.25;;;6.70;63.10;;;;;;5136389;27;20198;-62
2021/03/04 10:03:34;;;;;;;5.65;4.10;;;6.80;99.90;;;;;;5136784;27;20281;-66
2021/03/04 10:06:00;;;;;;;7.90;4.32;;;7.00;99.90;;;;;;5135314;27;20231;-67
2021/03/04 10:08:35;;;;;;;5.53;2.80;;;6.90;1.00;;;;;;5119856;27;20171;-67
2021/03/04 10:11:01;;;;;;;3.08;2.75;;;7.00;1.00;;;;;;5136405;27;20240;-66
2021/03/04 10:13:28;;;;;;;7.10;3.60;;;6.90;99.90;;;;;;5135872;27;20185;-65
2021/03/04 10:15:54;;;;;;;5.95;3.13;;;7.30;90.60;;;;;;5136032;27;20204;-64
2021/03/04 10:18:19;;;;;;;5.28;4.38;;;7.20;1.00;;;;;;5135667;27;20179;-64
2021/03/04 10:20:46;;;;;;;3.70;2.20;;;7.10;1.00;;;;;;5136415;27;20172;-64
2021/03/04 10:23:13;;;;;;;4.05;2.90;;;6.80;99.90;;;;;;5135773;27;20608;-64
2021/03/04 10:25:39;;;;;;;4.13;3.55;;;7.10;99.90;;;;;;5134833;27;20193;-63
2021/03/04 10:28:06;;;;;;;9.53;3.80;;;7.40;99.90;;;;;;5134698;27;20185;-67
2021/03/04 10:30:33;;;;;;;4.35;3.30;;;7.30;99.90;;;;;;5137919;27;20433;-68
2021/03/04 10:33:03;;;;;;;11.68;4.53;;;7.30;99.90;;;;;;5134997;27;20187;-69
2021/03/04 10:35:30;;;;;;;5.00;3.13;;;7.40;99.90;;;;;;5135231;27;20249;-68
2021/03/04 10:37:56;;;;;;;3.85;2.90;;;7.40;54.50;;;;;;5135700;27;20227;-66
2021/03/04 10:40:28;;;;;;;16.48;5.03;;;7.30;1.00;;;;;;5143910;27;20165;-67
2021/03/04 10:42:54;;;;;;;4.75;3.72;;;7.10;99.90;;;;;;5142631;27;20219;-66
2021/03/04 10:45:20;;;;;;;12.73;4.77;;;7.20;1.00;;;;;;5137029;27;20228;-65
2021/03/04 10:47:46;;;;;;;8.23;3.90;;;7.40;24.40;;;;;;5135785;27;20226;-66
2021/03/04 10:50:20;;;;;;;20.63;10.98;;;7.60;99.90;;;;;;5135396;27;20168;-66
2021/03/04 10:52:46;;;;;;;6.40;4.05;;;7.60;99.90;;;;;;5134854;27;20176;-65
2021/03/04 10:55:13;;;;;;;6.95;4.47;;;7.50;73.40;;;;;;5137890;27;20195;-67
2021/03/04 10:57:39;;;;;;;5.68;4.10;;;7.30;99.90;;;;;;5135983;27;20710;-66
2021/03/04 11:00:12;;;;;;;6.45;3.80;;;7.30;1.00;;;;;;5139733;27;20181;-66
2021/03/04 11:02:38;;;;;;;4.47;3.95;;;7.70;1.00;;;;;;5138340;27;20644;-65
2021/03/04 11:05:06;;;;;;;7.60;4.78;;;7.60;99.90;;;;;;5134209;27;20223;-62
2021/03/04 11:07:32;;;;;;;7.20;4.70;;;8.00;1.00;;;;;;5133688;27;20173;-64
2021/03/04 11:09:58;;;;;;;9.32;3.88;;;8.00;1.00;;;;;;5134356;27;20181;-63
2021/03/04 11:12:23;;;;;;;7.10;4.37;;;7.70;1.00;;;;;;5133957;27;20260;-63
2021/03/04 11:14:49;;;;;;;5.87;3.67;;;7.40;1.00;;;;;;5134238;27;20208;-63
2021/03/04 11:17:15;;;;;;;9.37;4.07;;;7.10;1.00;;;;;;5132262;27;20347;-62
2021/03/04 11:19:44;;;;;;;7.07;5.15;;;6.80;1.00;;;;;;5133712;27;20257;-63
2021/03/04 11:22:10;;;;;;;8.50;4.95;;;6.70;1.00;;;;;;5132221;27;20185;-62
2021/03/04 11:24:36;;;;;;;6.47;4.20;;;7.00;99.90;;;;;;5133321;27;20593;-63
2021/03/04 11:27:02;;;;;;;8.30;4.97;;;7.30;1.00;;;;;;5133426;27;20752;-62
2021/03/04 11:29:28;;;;;;;6.10;4.18;;;7.40;1.00;;;;;;5135233;27;20425;-62
2021/03/04 11:31:54;;;;;;;11.10;4.47;;;7.30;1.00;;;;;;5135315;27;20241;-62
2021/03/04 11:34:24;;;;;;;6.60;5.20;;;7.30;1.00;;;;;;5134910;27;20527;-62
2021/03/04 11:36:50;;;;;;;8.85;5.13;;;7.10;99.90;;;;;;5135214;27;20216;-62
2021/03/04 11:39:15;;;;;;;6.37;4.23;;;7.10;1.00;;;;;;5134608;27;20223;-63
2021/03/04 11:41:41;;;;;;;13.60;4.47;;;7.30;99.90;;;;;;5134921;27;20192;-66
2021/03/04 11:44:07;;;;;;;11.73;6.33;;;7.50;1.00;;;;;;5134839;27;20523;-65
2021/03/04 11:46:33;;;;;;;6.93;4.27;;;7.20;1.00;;;;;;5134830;27;20272;-65
2021/03/04 11:48:59;;;;;;;15.00;4.80;;;7.20;1.00;;;;;;5134946;27;20421;-63
2021/03/04 11:51:25;;;;;;;18.40;6.90;;;7.10;99.90;;;;;;5134865;28;20428;-63
2021/03/04 11:53:51;;;;;;;5.43;3.97;;;7.30;99.90;;;;;;5134083;28;20177;-63
2021/03/04 11:56:17;;;;;;;8.98;4.28;;;7.60;99.90;;;;;;5134570;27;20419;-62
2021/03/04 11:58:42;;;;;;;7.77;4.60;;;7.30;74.30;;;;;;5134696;28;20365;-63
2021/03/04 12:01:08;;;;;;;8.10;4.90;;;7.40;1.00;;;;;;5134815;28;20211;-64
2021/03/04 12:03:34;;;;;;;9.23;4.40;;;7.40;1.00;;;;;;5132642;28;20204;-63
2021/03/04 12:05:59;;;;;;;8.50;4.80;;;7.40;1.00;;;;;;5134140;28;20189;-63
2021/03/04 12:08:25;;;;;;;7.13;4.97;;;7.40;1.00;;;;;;5134099;28;20206;-68
2021/03/04 12:10:51;;;;;;;6.50;4.77;;;7.60;1.00;;;;;;5132810;27;20181;-68
2021/03/04 12:13:18;;;;;;;9.68;4.22;;;7.70;1.00;;;;;;5135443;27;20184;-68
2021/03/04 12:15:44;;;;;;;6.90;5.50;;;7.50;99.90;;;;;;5114368;28;20180;-68
2021/03/04 12:18:10;;;;;;;8.48;4.70;;;7.40;1.00;;;;;;5118470;28;20192;-64
2021/03/04 12:20:36;;;;;;;5.60;3.60;;;7.50;1.00;;;;;;5134534;27;20176;-65
2021/03/04 12:23:03;;;;;;;6.10;3.78;;;7.30;99.90;;;;;;5135143;28;20618;-65
2021/03/04 12:25:29;;;;;;;6.63;3.97;;;7.30;1.00;;;;;;5133900;28;20310;-65
2021/03/04 12:27:55;;;;;;;3.83;2.90;;;7.20;99.90;;;;;;5134944;28;20658;-63
2021/03/04 12:30:25;;;;;;;10.70;5.15;;;7.10;1.00;;;;;;5136084;27;20180;-66
2021/03/04 12:32:51;;;;;;;7.03;3.15;;;7.20;1.00;;;;;;5136114;27;20622;-67
2021/03/04 12:35:17;;;;;;;4.72;3.10;;;7.20;99.90;;;;;;5135159;27;20213;-61
2021/03/04 12:37:43;;;;;;;4.80;2.87;;;6.70;56.00;;;;;;5132281;27;20176;-61
2021/03/04 12:40:10;;;;;;;7.20;3.08;;;6.50;1.00;;;;;;5135733;28;20800;-68
2021/03/04 12:42:36;;;;;;;9.70;3.78;;;6.80;1.00;;;;;;5134179;27;20191;-62
2021/03/04 12:45:03;;;;;;;7.60;3.45;;;7.00;1.00;;;;;;5138337;27;20217;-64
2021/03/04 12:47:29;;;;;;;3.83;2.30;;;6.70;99.90;;;;;;5140206;27;20262;-65
2021/03/04 12:49:55;;;;;;;11.73;2.80;;;6.80;99.90;;;;;;5140127;27;20222;-65
2021/03/04 12:52:21;;;;;;;4.90;2.73;;;6.70;99.90;;;;;;5139437;27;20180;-66
2021/03/04 12:54:48;;;;;;;4.63;3.17;;;6.70;99.90;;;;;;5140912;27;20431;-64
2021/03/04 12:57:14;;;;;;;6.13;2.55;;;6.60;99.90;;;;;;5138734;27;20681;-61